This is the latest recevied weather packets stored in our database for station/object VK4NB-13. If no packets are shown the sender has not sent any weather packets the latest 10 day(s).
| Time | Temp. | Humidity | Pressure | Rain* | Wind** | Luminosity | Snow |
|---|---|---|---|---|---|---|---|
| 1777295102 | 20.56° C | 93% | 1018.1 hPa | 0 mm | - | - | - |
| 1777293602 | 20.56° C | 91% | 1017.9 hPa | 0 mm | - | - | - |
| 1777290602 | 20.56° C | 93% | 1018.4 hPa | 0 mm | - | - | - |
| 1777290002 | 20.56° C | 93% | 1018.1 hPa | 0 mm | - | - | - |
| 1777289403 | 20° C | 94% | 1018.2 hPa | 0 mm | - | - | - |
| 1777289103 | 20° C | 94% | 1018.2 hPa | 0 mm | - | - | - |
| 1777288802 | 20.56° C | 93% | 1018.1 hPa | 0 mm | - | - | - |
| 1777285824 | 21.11° C | 89% | 1018.4 hPa | 0 mm | - | - | - |
| 1777285203 | 21.67° C | 89% | 1018.3 hPa | 0 mm | - | - | - |
| 1777284002 | 21.67° C | 88% | 1018.1 hPa | 0 mm | - | - | - |
| 1777281003 | 21.67° C | 86% | 1017.7 hPa | 3.05 mm | - | - | - |
| 1777279524 | 21.67° C | 88% | 1017.5 hPa | 2.29 mm | - | - | - |
| 1777276803 | 22.22° C | 86% | 1016.9 hPa | 0.25 mm | - | - | - |
| 1777276503 | 21.67° C | 87% | 1016.9 hPa | 0.25 mm | - | - | - |
| 1777274403 | 22.22° C | 90% | 1016.4 hPa | 0.25 mm | - | - | - |
| 1777272303 | 21.67° C | 93% | 1015.4 hPa | 0.25 mm | - | - | - |
| 1777270503 | 24.44° C | 81% | 1015.1 hPa | 0 mm | - | - | - |
| 1777266924 | 25.56° C | 75% | 1014.8 hPa | 0 mm | - | - | - |
| 1777263603 | 25.56° C | 77% | 1015 hPa | 0 mm | - | - | - |
| 1777263303 | 24.44° C | 76% | 1015.2 hPa | 0 mm | - | - | - |
| 1777263003 | 25.56° C | 75% | 1015.1 hPa | 0 mm | - | - | - |
| 1777262103 | 25.56° C | 74% | 1015.3 hPa | 0 mm | - | - | - |
| 1777261524 | 25.56° C | 74% | 1015.6 hPa | 0 mm | - | - | - |
| 1777260325 | 26.67° C | 70% | 1015.5 hPa | 0 mm | - | - | - |
| 1777259724 | 26.67° C | 68% | 1015.5 hPa | 0 mm | - | - | - |
* Rain latest hour (hover to see other rain measurements)
** Current wind speed in m/s (hover to see current wind gust speed)